EZY414 EGKK-EGPH
Flight info
| Callsign | EZY414 |
|---|---|
| Flight time | 1h 1m |
| Altitude | 38000 |
| Route | LAM L10 BPK UN601 RIBEL DCT INPIP |
| Aircraft | A20N/M-SDE2E3FGHIRWXY/LB1 |
Departure
| Time | 2026-04-21 10:05 |
|---|---|
| Airport | London Gatwick Airport (EGKK) |
Arrival
| Time | 2026-04-21 11:07 |
|---|---|
| Airport | Edinburgh Airport (EGPH) |
| Time | Latitude | Longitude | Altitude | Speed | Heading |
|---|---|---|---|---|---|
| 2026-04-21 09:26 | 51.15573 | -0.17756 | 203 ft | 0 kts | 348° |
| 2026-04-21 09:53 | 51.15563 | -0.17752 | 203 ft | 3 kts | 345° |
| 2026-04-21 09:53 | 51.15541 | -0.17740 | 203 ft | 3 kts | 333° |
| 2026-04-21 09:53 | 51.15526 | -0.17725 | 216 ft | 2 kts | 311° |
| 2026-04-21 09:54 | 51.15519 | -0.17708 | 208 ft | 2 kts | 287° |
| 2026-04-21 09:54 | 51.15517 | -0.17682 | 211 ft | 3 kts | 266° |
| 2026-04-21 09:54 | 51.15518 | -0.17660 | 213 ft | 2 kts | 260° |
| 2026-04-21 09:54 | 51.15520 | -0.17643 | 214 ft | 2 kts | 258° |
| 2026-04-21 09:55 | 51.15522 | -0.17631 | 212 ft | 0 kts | 257° |
| 2026-04-21 09:57 | 51.15511 | -0.17712 | 210 ft | 13 kts | 259° |
| 2026-04-21 09:57 | 51.15488 | -0.17881 | 214 ft | 18 kts | 257° |
| 2026-04-21 09:57 | 51.15461 | -0.18076 | 211 ft | 13 kts | 258° |
| 2026-04-21 09:58 | 51.15445 | -0.18186 | 209 ft | 11 kts | 256° |
| 2026-04-21 09:58 | 51.15392 | -0.18271 | 203 ft | 12 kts | 173° |
| 2026-04-21 09:58 | 51.15302 | -0.18247 | 215 ft | 15 kts | 168° |
| 2026-04-21 09:58 | 51.15212 | -0.18228 | 203 ft | 10 kts | 208° |
| 2026-04-21 09:59 | 51.15184 | -0.18345 | 209 ft | 13 kts | 259° |
| 2026-04-21 09:59 | 51.15160 | -0.18507 | 212 ft | 17 kts | 259° |
| 2026-04-21 09:59 | 51.15133 | -0.18708 | 203 ft | 20 kts | 257° |
| 2026-04-21 09:59 | 51.15104 | -0.18922 | 209 ft | 21 kts | 257° |
| 2026-04-21 10:00 | 51.15071 | -0.19157 | 208 ft | 20 kts | 256° |
| 2026-04-21 10:00 | 51.15042 | -0.19374 | 213 ft | 21 kts | 258° |
| 2026-04-21 10:00 | 51.15008 | -0.19617 | 207 ft | 23 kts | 259° |
| 2026-04-21 10:00 | 51.14973 | -0.19871 | 207 ft | 25 kts | 257° |
| 2026-04-21 10:01 | 51.14935 | -0.20152 | 204 ft | 23 kts | 257° |
| 2026-04-21 10:01 | 51.14898 | -0.20413 | 214 ft | 25 kts | 259° |
| 2026-04-21 10:01 | 51.14866 | -0.20657 | 203 ft | 22 kts | 258° |
| 2026-04-21 10:01 | 51.14835 | -0.20893 | 207 ft | 22 kts | 257° |
| 2026-04-21 10:02 | 51.14767 | -0.21299 | 209 ft | 17 kts | 261° |
| 2026-04-21 10:02 | 51.14731 | -0.21402 | 206 ft | 0 kts | 197° |
| 2026-04-21 10:02 | 51.14727 | -0.21402 | 205 ft | 3 kts | 189° |
| 2026-04-21 10:03 | 51.14672 | -0.21374 | 205 ft | 11 kts | 142° |
| 2026-04-21 10:03 | 51.14613 | -0.21326 | 205 ft | 0 kts | 167° |
| 2026-04-21 10:03 | 51.14600 | -0.21321 | 209 ft | 6 kts | 165° |
| 2026-04-21 10:04 | 51.14542 | -0.21260 | 206 ft | 14 kts | 130° |
| 2026-04-21 10:04 | 51.14522 | -0.21148 | 202 ft | 0 kts | 77° |
| 2026-04-21 10:04 | 51.14533 | -0.21076 | 206 ft | 30 kts | 77° |
| 2026-04-21 10:05 | 51.14633 | -0.20339 | 206 ft | 104 kts | 77° |
| 2026-04-21 10:05 | 51.14830 | -0.18913 | 317 ft | 153 kts | 75° |
| 2026-04-21 10:05 | 51.15102 | -0.17095 | 738 ft | 188 kts | 75° |
| 2026-04-21 10:05 | 51.15409 | -0.14993 | 1581 ft | 202 kts | 76° |
| 2026-04-21 10:06 | 51.15720 | -0.12703 | 2329 ft | 220 kts | 77° |
| 2026-04-21 10:06 | 51.16048 | -0.10219 | 3009 ft | 234 kts | 77° |
| 2026-04-21 10:06 | 51.16470 | -0.07693 | 3007 ft | 238 kts | 68° |
| 2026-04-21 10:06 | 51.17232 | -0.05376 | 2995 ft | 236 kts | 56° |
| 2026-04-21 10:07 | 51.18242 | -0.03298 | 3000 ft | 238 kts | 53° |
| 2026-04-21 10:07 | 51.19258 | -0.01221 | 2994 ft | 238 kts | 53° |
| 2026-04-21 10:07 | 51.20267 | 0.00863 | 3117 ft | 237 kts | 53° |
| 2026-04-21 10:07 | 51.21277 | 0.02957 | 3388 ft | 241 kts | 53° |
| 2026-04-21 10:08 | 51.22306 | 0.05092 | 4191 ft | 244 kts | 54° |
| 2026-04-21 10:08 | 51.23342 | 0.07237 | 4799 ft | 245 kts | 54° |
| 2026-04-21 10:08 | 51.24359 | 0.09417 | 5099 ft | 243 kts | 60° |
| 2026-04-21 10:08 | 51.25079 | 0.11848 | 5593 ft | 242 kts | 73° |
| 2026-04-21 10:09 | 51.25449 | 0.14480 | 6127 ft | 245 kts | 80° |
| 2026-04-21 10:09 | 51.25755 | 0.17154 | 6669 ft | 245 kts | 80° |
| 2026-04-21 10:09 | 51.26074 | 0.19837 | 7202 ft | 248 kts | 80° |
| 2026-04-21 10:09 | 51.26399 | 0.22564 | 7717 ft | 251 kts | 80° |
| 2026-04-21 10:10 | 51.26726 | 0.25315 | 8239 ft | 253 kts | 79° |
| 2026-04-21 10:10 | 51.27054 | 0.28085 | 8772 ft | 256 kts | 79° |
| 2026-04-21 10:10 | 51.27392 | 0.30885 | 9304 ft | 259 kts | 76° |
| 2026-04-21 10:10 | 51.28155 | 0.33480 | 9836 ft | 264 kts | 53° |
| 2026-04-21 10:11 | 51.29573 | 0.35387 | 10375 ft | 271 kts | 30° |
| 2026-04-21 10:11 | 51.31412 | 0.36172 | 10856 ft | 281 kts | 5° |
| 2026-04-21 10:11 | 51.33363 | 0.35602 | 11113 ft | 291 kts | 342° |
| 2026-04-21 10:11 | 51.35250 | 0.34376 | 11609 ft | 299 kts | 341° |
| 2026-04-21 10:12 | 51.36545 | 0.33513 | 11952 ft | 299 kts | 341° |
| 2026-04-21 10:12 | 51.39105 | 0.31812 | 12641 ft | 302 kts | 341° |
| 2026-04-21 10:12 | 51.40422 | 0.30945 | 13002 ft | 302 kts | 341° |
| 2026-04-21 10:12 | 51.43015 | 0.29257 | 13722 ft | 306 kts | 341° |
| 2026-04-21 10:13 | 51.44348 | 0.28395 | 14086 ft | 306 kts | 341° |
| 2026-04-21 10:13 | 51.46335 | 0.27104 | 14567 ft | 311 kts | 341° |
| 2026-04-21 10:13 | 51.48333 | 0.25808 | 15448 ft | 309 kts | 341° |
| 2026-04-21 10:13 | 51.50320 | 0.24510 | 16362 ft | 309 kts | 340° |
| 2026-04-21 10:14 | 51.52257 | 0.23249 | 17162 ft | 310 kts | 340° |
| 2026-04-21 10:14 | 51.54306 | 0.21919 | 17951 ft | 315 kts | 339° |
| 2026-04-21 10:14 | 51.56329 | 0.20597 | 18844 ft | 312 kts | 340° |
| 2026-04-21 10:14 | 51.58343 | 0.19279 | 19555 ft | 315 kts | 340° |
| 2026-04-21 10:15 | 51.60388 | 0.17943 | 20161 ft | 319 kts | 339° |
| 2026-04-21 10:15 | 51.62445 | 0.16584 | 20923 ft | 318 kts | 335° |
| 2026-04-21 10:15 | 51.64330 | 0.14713 | 21639 ft | 319 kts | 321° |
| 2026-04-21 10:15 | 51.65889 | 0.12077 | 22301 ft | 324 kts | 307° |
| 2026-04-21 10:16 | 51.67101 | 0.09051 | 22833 ft | 331 kts | 304° |
| 2026-04-21 10:16 | 51.68388 | 0.05810 | 23007 ft | 348 kts | 304° |
| 2026-04-21 10:16 | 51.69713 | 0.02504 | 23176 ft | 363 kts | 304° |
| 2026-04-21 10:16 | 51.71131 | -0.01028 | 23502 ft | 376 kts | 304° |
| 2026-04-21 10:17 | 51.72541 | -0.04545 | 24336 ft | 370 kts | 304° |
| 2026-04-21 10:17 | 51.74031 | -0.07906 | 25016 ft | 368 kts | 310° |
| 2026-04-21 10:17 | 51.75818 | -0.10877 | 25552 ft | 371 kts | 318° |
| 2026-04-21 10:17 | 51.77879 | -0.13400 | 26108 ft | 373 kts | 325° |
| 2026-04-21 10:18 | 51.80112 | -0.15529 | 26645 ft | 374 kts | 327° |
| 2026-04-21 10:18 | 51.82369 | -0.17668 | 26986 ft | 380 kts | 327° |
| 2026-04-21 10:18 | 51.84677 | -0.19875 | 27221 ft | 388 kts | 327° |
| 2026-04-21 10:18 | 51.87000 | -0.22096 | 27773 ft | 388 kts | 327° |
| 2026-04-21 10:19 | 51.89322 | -0.24317 | 28289 ft | 388 kts | 327° |
| 2026-04-21 10:19 | 51.91654 | -0.26549 | 28748 ft | 390 kts | 327° |
| 2026-04-21 10:19 | 51.93990 | -0.28788 | 29183 ft | 392 kts | 326° |
| 2026-04-21 10:19 | 51.96309 | -0.31012 | 29616 ft | 393 kts | 326° |
| 2026-04-21 10:20 | 51.98665 | -0.33274 | 30056 ft | 394 kts | 326° |
| 2026-04-21 10:20 | 52.01032 | -0.35551 | 30461 ft | 396 kts | 326° |
| 2026-04-21 10:20 | 52.03407 | -0.37838 | 30759 ft | 399 kts | 326° |
| 2026-04-21 10:20 | 52.05806 | -0.40153 | 30994 ft | 404 kts | 326° |
| 2026-04-21 10:21 | 52.08241 | -0.42506 | 31178 ft | 409 kts | 327° |
| 2026-04-21 10:21 | 52.10697 | -0.44877 | 31522 ft | 411 kts | 327° |
| 2026-04-21 10:21 | 52.13156 | -0.47253 | 31902 ft | 411 kts | 327° |
| 2026-04-21 10:21 | 52.15616 | -0.49633 | 32287 ft | 412 kts | 327° |
| 2026-04-21 10:22 | 52.18077 | -0.52017 | 32676 ft | 412 kts | 327° |
| 2026-04-21 10:22 | 52.20541 | -0.54409 | 33053 ft | 412 kts | 327° |
| 2026-04-21 10:22 | 52.23001 | -0.56801 | 33420 ft | 412 kts | 327° |
| 2026-04-21 10:22 | 52.25467 | -0.59203 | 33781 ft | 412 kts | 327° |
| 2026-04-21 10:23 | 52.27926 | -0.61604 | 34140 ft | 412 kts | 327° |
| 2026-04-21 10:23 | 52.30393 | -0.64019 | 34398 ft | 415 kts | 327° |
| 2026-04-21 10:23 | 52.32876 | -0.66451 | 34648 ft | 416 kts | 327° |
| 2026-04-21 10:23 | 52.35362 | -0.68888 | 34905 ft | 417 kts | 327° |
| 2026-04-21 10:24 | 52.37852 | -0.71331 | 35162 ft | 418 kts | 327° |
| 2026-04-21 10:24 | 52.40350 | -0.73782 | 35395 ft | 419 kts | 327° |
| 2026-04-21 10:24 | 52.42855 | -0.76241 | 35633 ft | 420 kts | 327° |
| 2026-04-21 10:24 | 52.45366 | -0.78710 | 35861 ft | 421 kts | 327° |
| 2026-04-21 10:25 | 52.47881 | -0.81187 | 36092 ft | 422 kts | 328° |
| 2026-04-21 10:25 | 52.50399 | -0.83670 | 36313 ft | 423 kts | 328° |
| 2026-04-21 10:25 | 52.52926 | -0.86165 | 36531 ft | 424 kts | 328° |
| 2026-04-21 10:25 | 52.55462 | -0.88673 | 36670 ft | 427 kts | 328° |
| 2026-04-21 10:26 | 52.58009 | -0.91195 | 36896 ft | 427 kts | 328° |
| 2026-04-21 10:26 | 52.60556 | -0.93721 | 37110 ft | 428 kts | 328° |
| 2026-04-21 10:26 | 52.63107 | -0.96253 | 37309 ft | 428 kts | 328° |
| 2026-04-21 10:26 | 52.65659 | -0.98792 | 37485 ft | 429 kts | 328° |
| 2026-04-21 10:27 | 52.68210 | -1.01333 | 37722 ft | 428 kts | 328° |
| 2026-04-21 10:27 | 52.70765 | -1.03881 | 37936 ft | 429 kts | 328° |
| 2026-04-21 10:27 | 52.73313 | -1.06427 | 38166 ft | 428 kts | 328° |
| 2026-04-21 10:27 | 52.75861 | -1.08976 | 38370 ft | 428 kts | 328° |
| 2026-04-21 10:28 | 52.78415 | -1.11536 | 38373 ft | 431 kts | 328° |
| 2026-04-21 10:28 | 52.83546 | -1.16686 | 38378 ft | 428 kts | 328° |
| 2026-04-21 10:29 | 52.88612 | -1.21785 | 38372 ft | 428 kts | 328° |
| 2026-04-21 10:29 | 52.93704 | -1.26926 | 38377 ft | 431 kts | 328° |
| 2026-04-21 10:30 | 52.98802 | -1.32086 | 38380 ft | 427 kts | 328° |
| 2026-04-21 10:30 | 53.03870 | -1.37226 | 38377 ft | 428 kts | 328° |
| 2026-04-21 10:31 | 53.08986 | -1.42431 | 38393 ft | 430 kts | 328° |
| 2026-04-21 10:31 | 53.14061 | -1.47607 | 38388 ft | 425 kts | 328° |
| 2026-04-21 10:32 | 53.19129 | -1.52795 | 38402 ft | 431 kts | 328° |
| 2026-04-21 10:32 | 53.24200 | -1.57995 | 38411 ft | 429 kts | 328° |
| 2026-04-21 10:33 | 53.29240 | -1.63181 | 38413 ft | 426 kts | 328° |
| 2026-04-21 10:33 | 53.34312 | -1.68419 | 38414 ft | 432 kts | 328° |
| 2026-04-21 10:34 | 53.39386 | -1.73673 | 38412 ft | 425 kts | 328° |
| 2026-04-21 10:34 | 53.44404 | -1.78887 | 38414 ft | 426 kts | 328° |
| 2026-04-21 10:35 | 53.49479 | -1.84174 | 38418 ft | 430 kts | 328° |
| 2026-04-21 10:35 | 53.54548 | -1.89460 | 38419 ft | 425 kts | 328° |
| 2026-04-21 10:36 | 53.59593 | -1.94742 | 38421 ft | 430 kts | 328° |
| 2026-04-21 10:36 | 53.64672 | -2.00078 | 38427 ft | 428 kts | 327° |
| 2026-04-21 10:37 | 53.69694 | -2.05369 | 38425 ft | 427 kts | 327° |
| 2026-04-21 10:37 | 53.74850 | -2.10442 | 38425 ft | 432 kts | 333° |
| 2026-04-21 10:38 | 53.80398 | -2.14358 | 38419 ft | 430 kts | 337° |
| 2026-04-21 10:38 | 53.85973 | -2.18193 | 38425 ft | 435 kts | 337° |
| 2026-04-21 10:39 | 53.91557 | -2.22035 | 38428 ft | 430 kts | 337° |
| 2026-04-21 10:39 | 53.97146 | -2.25881 | 38431 ft | 435 kts | 337° |
| 2026-04-21 10:40 | 54.02743 | -2.29738 | 38436 ft | 436 kts | 337° |
| 2026-04-21 10:40 | 54.08375 | -2.33628 | 38432 ft | 438 kts | 337° |
| 2026-04-21 10:41 | 54.13981 | -2.37507 | 38443 ft | 434 kts | 337° |
| 2026-04-21 10:41 | 54.19606 | -2.41414 | 38436 ft | 438 kts | 337° |
| 2026-04-21 10:42 | 54.25219 | -2.45324 | 38453 ft | 437 kts | 338° |
| 2026-04-21 10:42 | 54.30853 | -2.49261 | 38452 ft | 441 kts | 337° |
| 2026-04-21 10:43 | 54.36517 | -2.53227 | 38114 ft | 440 kts | 337° |
| 2026-04-21 10:43 | 54.39356 | -2.55221 | 37851 ft | 442 kts | 337° |
| 2026-04-21 10:43 | 54.42196 | -2.57217 | 37490 ft | 441 kts | 337° |
| 2026-04-21 10:43 | 54.45040 | -2.59219 | 36820 ft | 442 kts | 337° |
| 2026-04-21 10:44 | 54.47906 | -2.61241 | 35933 ft | 448 kts | 337° |
| 2026-04-21 10:44 | 54.50809 | -2.63292 | 35048 ft | 453 kts | 336° |
| 2026-04-21 10:44 | 54.53714 | -2.65347 | 34527 ft | 449 kts | 336° |
| 2026-04-21 10:44 | 54.56581 | -2.67376 | 33917 ft | 444 kts | 336° |
| 2026-04-21 10:45 | 54.59452 | -2.69417 | 32850 ft | 450 kts | 336° |
| 2026-04-21 10:45 | 54.62359 | -2.71484 | 32025 ft | 451 kts | 336° |
| 2026-04-21 10:45 | 54.65243 | -2.73539 | 31461 ft | 446 kts | 336° |
| 2026-04-21 10:45 | 54.68118 | -2.75592 | 30582 ft | 449 kts | 337° |
| 2026-04-21 10:46 | 54.71007 | -2.77658 | 29798 ft | 447 kts | 337° |
| 2026-04-21 10:46 | 54.73856 | -2.79705 | 29361 ft | 440 kts | 339° |
| 2026-04-21 10:46 | 54.76684 | -2.81743 | 28875 ft | 441 kts | 339° |
| 2026-04-21 10:46 | 54.79515 | -2.83776 | 28267 ft | 440 kts | 339° |
| 2026-04-21 10:47 | 54.82347 | -2.85812 | 27456 ft | 442 kts | 339° |
| 2026-04-21 10:47 | 54.85171 | -2.87845 | 26890 ft | 437 kts | 339° |
| 2026-04-21 10:47 | 54.87957 | -2.89853 | 26570 ft | 430 kts | 340° |
| 2026-04-21 10:47 | 54.90725 | -2.91849 | 26370 ft | 434 kts | 339° |
| 2026-04-21 10:48 | 54.93521 | -2.93868 | 26167 ft | 435 kts | 340° |
| 2026-04-21 10:48 | 54.96316 | -2.95891 | 25971 ft | 434 kts | 340° |
| 2026-04-21 10:48 | 54.99058 | -2.97881 | 25758 ft | 432 kts | 340° |
| 2026-04-21 10:48 | 55.01831 | -2.99896 | 25558 ft | 431 kts | 340° |
| 2026-04-21 10:49 | 55.04633 | -3.01932 | 25367 ft | 430 kts | 340° |
| 2026-04-21 10:49 | 55.07360 | -3.03917 | 25174 ft | 429 kts | 340° |
| 2026-04-21 10:49 | 55.10110 | -3.05923 | 24977 ft | 428 kts | 340° |
| 2026-04-21 10:49 | 55.12857 | -3.07928 | 24697 ft | 428 kts | 340° |
| 2026-04-21 10:50 | 55.14668 | -3.09252 | 24319 ft | 429 kts | 340° |
| 2026-04-21 10:50 | 55.18395 | -3.11979 | 23035 ft | 436 kts | 340° |
| 2026-04-21 10:50 | 55.21203 | -3.14036 | 22164 ft | 437 kts | 340° |
| 2026-04-21 10:50 | 55.23996 | -3.16091 | 21467 ft | 433 kts | 340° |
| 2026-04-21 10:51 | 55.26751 | -3.18117 | 20600 ft | 426 kts | 342° |
| 2026-04-21 10:51 | 55.29522 | -3.19511 | 20172 ft | 402 kts | 354° |
| 2026-04-21 10:51 | 55.32211 | -3.19942 | 19937 ft | 375 kts | 5° |
| 2026-04-21 10:51 | 55.34748 | -3.19657 | 19558 ft | 358 kts | 10° |
| 2026-04-21 10:52 | 55.37209 | -3.19275 | 18874 ft | 355 kts | 10° |
| 2026-04-21 10:52 | 55.39683 | -3.18892 | 17837 ft | 359 kts | 9° |
| 2026-04-21 10:52 | 55.42183 | -3.18502 | 16802 ft | 363 kts | 9° |
| 2026-04-21 10:52 | 55.44704 | -3.18108 | 15809 ft | 365 kts | 9° |
| 2026-04-21 10:53 | 55.47238 | -3.17712 | 14840 ft | 366 kts | 9° |
| 2026-04-21 10:53 | 55.49757 | -3.17319 | 14033 ft | 360 kts | 9° |
| 2026-04-21 10:53 | 55.52226 | -3.16936 | 13358 ft | 352 kts | 9° |
| 2026-04-21 10:53 | 55.54635 | -3.16561 | 12701 ft | 344 kts | 9° |
| 2026-04-21 10:54 | 55.56992 | -3.16192 | 12052 ft | 337 kts | 9° |
| 2026-04-21 10:54 | 55.59301 | -3.15828 | 11408 ft | 330 kts | 9° |
| 2026-04-21 10:54 | 55.61563 | -3.15468 | 10791 ft | 323 kts | 9° |
| 2026-04-21 10:54 | 55.63782 | -3.15110 | 10158 ft | 318 kts | 9° |
| 2026-04-21 10:55 | 55.65972 | -3.14761 | 9483 ft | 314 kts | 9° |
| 2026-04-21 10:55 | 55.68134 | -3.14423 | 8823 ft | 310 kts | 8° |
| 2026-04-21 10:55 | 55.70276 | -3.14861 | 8188 ft | 313 kts | 344° |
| 2026-04-21 10:55 | 55.72155 | -3.16798 | 7556 ft | 315 kts | 319° |
| 2026-04-21 10:56 | 55.73436 | -3.19907 | 6933 ft | 313 kts | 294° |
| 2026-04-21 10:56 | 55.73981 | -3.23581 | 6519 ft | 301 kts | 278° |
| 2026-04-21 10:56 | 55.74261 | -3.27153 | 6339 ft | 283 kts | 277° |
| 2026-04-21 10:56 | 55.74562 | -3.30520 | 6047 ft | 272 kts | 280° |
| 2026-04-21 10:57 | 55.74940 | -3.33779 | 5679 ft | 265 kts | 283° |
| 2026-04-21 10:57 | 55.75223 | -3.35860 | 5589 ft | 263 kts | 284° |
| 2026-04-21 10:57 | 55.75855 | -3.40087 | 5588 ft | 269 kts | 286° |
| 2026-04-21 10:57 | 55.76235 | -3.43326 | 5584 ft | 269 kts | 272° |
| 2026-04-21 10:58 | 55.76254 | -3.46622 | 5590 ft | 265 kts | 271° |
| 2026-04-21 10:58 | 55.76338 | -3.49923 | 5591 ft | 270 kts | 272° |
| 2026-04-21 10:58 | 55.76406 | -3.53216 | 5584 ft | 265 kts | 271° |
| 2026-04-21 10:58 | 55.76468 | -3.56483 | 5570 ft | 264 kts | 271° |
| 2026-04-21 10:59 | 55.76529 | -3.59744 | 5413 ft | 266 kts | 271° |
| 2026-04-21 10:59 | 55.76592 | -3.63043 | 5235 ft | 268 kts | 271° |
| 2026-04-21 10:59 | 55.76630 | -3.65277 | 5107 ft | 266 kts | 271° |
| 2026-04-21 10:59 | 55.76702 | -3.68531 | 4914 ft | 263 kts | 279° |
| 2026-04-21 11:00 | 55.77358 | -3.71525 | 4731 ft | 262 kts | 310° |
| 2026-04-21 11:00 | 55.78701 | -3.73567 | 4536 ft | 249 kts | 340° |
| 2026-04-21 11:00 | 55.80296 | -3.74137 | 4466 ft | 234 kts | 6° |
| 2026-04-21 11:00 | 55.81842 | -3.73439 | 4460 ft | 227 kts | 36° |
| 2026-04-21 11:01 | 55.83043 | -3.71694 | 4457 ft | 222 kts | 48° |
| 2026-04-21 11:01 | 55.83989 | -3.69555 | 4444 ft | 221 kts | 59° |
| 2026-04-21 11:01 | 55.84820 | -3.67224 | 4072 ft | 224 kts | 60° |
| 2026-04-21 11:02 | 55.86326 | -3.62820 | 3404 ft | 193 kts | 60° |
| 2026-04-21 11:02 | 55.86991 | -3.60864 | 3129 ft | 177 kts | 61° |
| 2026-04-21 11:02 | 55.87594 | -3.59091 | 2921 ft | 158 kts | 61° |
| 2026-04-21 11:02 | 55.88131 | -3.57509 | 2693 ft | 141 kts | 61° |
| 2026-04-21 11:03 | 55.88614 | -3.56088 | 2493 ft | 128 kts | 62° |
| 2026-04-21 11:03 | 55.89052 | -3.54801 | 2333 ft | 115 kts | 61° |
| 2026-04-21 11:03 | 55.89456 | -3.53607 | 2177 ft | 116 kts | 61° |
| 2026-04-21 11:03 | 55.89864 | -3.52404 | 1993 ft | 110 kts | 61° |
| 2026-04-21 11:04 | 55.90263 | -3.51226 | 1854 ft | 112 kts | 62° |
| 2026-04-21 11:04 | 55.90669 | -3.50029 | 1696 ft | 110 kts | 62° |
| 2026-04-21 11:04 | 55.91062 | -3.48875 | 1544 ft | 110 kts | 62° |
| 2026-04-21 11:04 | 55.91460 | -3.47697 | 1392 ft | 112 kts | 61° |
| 2026-04-21 11:05 | 55.91856 | -3.46532 | 1223 ft | 106 kts | 62° |
| 2026-04-21 11:05 | 55.92233 | -3.45418 | 1074 ft | 106 kts | 62° |
| 2026-04-21 11:05 | 55.92610 | -3.44308 | 908 ft | 106 kts | 62° |
| 2026-04-21 11:05 | 55.92985 | -3.43133 | 766 ft | 112 kts | 60° |
| 2026-04-21 11:06 | 55.93393 | -3.41970 | 601 ft | 110 kts | 59° |
| 2026-04-21 11:06 | 55.93795 | -3.40786 | 435 ft | 114 kts | 60° |
| 2026-04-21 11:06 | 55.94199 | -3.39593 | 278 ft | 109 kts | 58° |
| 2026-04-21 11:06 | 55.94583 | -3.38478 | 125 ft | 101 kts | 59° |
| 2026-04-21 11:07 | 55.94894 | -3.37569 | 110 ft | 54 kts | 59° |
| 2026-04-21 11:07 | 55.95089 | -3.36982 | 108 ft | 73 kts | 59° |
| 2026-04-21 11:07 | 55.95257 | -3.36410 | 101 ft | 6 kts | 126° |
| 2026-04-21 11:07 | 55.95229 | -3.36383 | 101 ft | 10 kts | 151° |
| 2026-04-21 11:08 | 55.95176 | -3.36332 | 103 ft | 4 kts | 151° |
| 2026-04-21 11:08 | 55.95138 | -3.36200 | 103 ft | 21 kts | 100° |
| 2026-04-21 11:08 | 55.95093 | -3.35992 | 105 ft | 16 kts | 106° |
| 2026-04-21 11:08 | 55.95019 | -3.35850 | 106 ft | 15 kts | 164° |
| 2026-04-21 11:09 | 55.94987 | -3.35929 | 107 ft | 8 kts | 262° |